sensor_id;sensor_type;location;lat;lon;timestamp;pressure;altitude;pressure_sealevel;temperature;humidity
7018;BME280;3549;42.162;24.726;2023-04-02T00:07:40;47717.06;;;-141.97;70.95
7018;BME280;3549;42.162;24.726;2023-04-02T00:10:38;47594.03;;;-141.97;70.30
7018;BME280;3549;42.162;24.726;2023-04-02T00:15:37;47595.97;;;-141.97;70.49
7018;BME280;3549;42.162;24.726;2023-04-02T00:18:04;47724.75;;;-141.97;70.81
7018;BME280;3549;42.162;24.726;2023-04-02T00:20:33;47617.09;;;-141.97;71.00
7018;BME280;3549;42.162;24.726;2023-04-02T00:23:02;47615.19;;;-141.97;71.18
7018;BME280;3549;42.162;24.726;2023-04-02T00:25:37;47605.56;;;-141.97;70.45
7018;BME280;3549;42.162;24.726;2023-04-02T00:28:15;47647.84;;;-141.97;70.39
7018;BME280;3549;42.162;24.726;2023-04-02T00:30:49;47715.13;;;-141.97;69.59
7018;BME280;3549;42.162;24.726;2023-04-02T00:33:24;47730.50;;;-141.97;69.15
7018;BME280;3549;42.162;24.726;2023-04-02T00:35:52;47722.81;;;-141.97;68.79
7018;BME280;3549;42.162;24.726;2023-04-02T00:38:28;47738.19;;;-141.97;68.70
7018;BME280;3549;42.162;24.726;2023-04-02T00:40:57;47496.00;;;-141.97;69.11
7018;BME280;3549;42.162;24.726;2023-04-02T00:43:25;47707.44;;;-141.97;69.66
7018;BME280;3549;42.162;24.726;2023-04-02T00:46:14;47530.59;;;-141.97;70.55
7018;BME280;3549;42.162;24.726;2023-04-02T00:48:41;47676.69;;;-141.97;71.77
7018;BME280;3549;42.162;24.726;2023-04-02T00:51:16;47767.03;;;-141.97;72.22
7018;BME280;3549;42.162;24.726;2023-04-02T00:53:45;47699.75;;;-141.97;72.70
7018;BME280;3549;42.162;24.726;2023-04-02T00:56:20;47607.50;;;-141.97;73.14
7018;BME280;3549;42.162;24.726;2023-04-02T00:58:51;47684.38;;;-141.97;73.02
7018;BME280;3549;42.162;24.726;2023-04-02T01:01:20;47484.47;;;-141.97;72.85
7018;BME280;3549;42.162;24.726;2023-04-02T01:04:00;47768.94;;;-141.97;72.40
7018;BME280;3549;42.162;24.726;2023-04-02T01:06:36;47526.75;;;-141.97;72.21
7018;BME280;3549;42.162;24.726;2023-04-02T01:09:12;47617.09;;;-141.97;72.06
7018;BME280;3549;42.162;24.726;2023-04-02T01:22:25;47615.19;;;-141.97;70.85
7018;BME280;3549;42.162;24.726;2023-04-02T01:24:59;47607.50;;;-141.97;70.96
7018;BME280;3549;42.162;24.726;2023-04-02T01:27:33;47780.47;;;-141.97;70.62
7018;BME280;3549;42.162;24.726;2023-04-02T01:30:04;47659.38;;;-141.97;70.51
7018;BME280;3549;42.162;24.726;2023-04-02T01:32:32;47553.69;;;-141.97;70.79
7018;BME280;3549;42.162;24.726;2023-04-02T01:34:58;47607.50;;;-141.97;70.70
7018;BME280;3549;42.162;24.726;2023-04-02T01:45:38;47663.22;;;-141.97;69.34
7018;BME280;3549;42.162;24.726;2023-04-02T01:48:08;47655.53;;;-141.97;68.62
7018;BME280;3549;42.162;24.726;2023-04-02T01:50:38;47599.81;;;-141.97;68.79
7018;BME280;3549;42.162;24.726;2023-04-02T01:53:09;47644.00;;;-141.97;68.72
7018;BME280;3549;42.162;24.726;2023-04-02T01:55:42;47642.09;;;-141.97;68.62
7018;BME280;3549;42.162;24.726;2023-04-02T01:58:09;47653.63;;;-141.97;68.91
7018;BME280;3549;42.162;24.726;2023-04-02T02:00:42;47707.44;;;-141.97;68.49
7018;BME280;3549;42.162;24.726;2023-04-02T02:03:11;47572.91;;;-141.97;67.98
7018;BME280;3549;42.162;24.726;2023-04-02T02:05:37;47522.91;;;-141.97;67.96
7018;BME280;3549;42.162;24.726;2023-04-02T02:08:03;47755.50;;;-141.97;67.75
7018;BME280;3549;42.162;24.726;2023-04-02T02:10:34;47669.00;;;-141.97;67.78
7018;BME280;3549;42.162;24.726;2023-04-02T02:13:01;47588.28;;;-141.97;67.92
7018;BME280;3549;42.162;24.726;2023-04-02T02:15:27;47699.75;;;-141.97;67.61
7018;BME280;3549;42.162;24.726;2023-04-02T02:18:03;47546.00;;;-141.97;68.23
7018;BME280;3549;42.162;24.726;2023-04-02T02:20:31;47622.88;;;-141.97;68.27
7018;BME280;3549;42.162;24.726;2023-04-02T02:22:57;47665.16;;;-141.97;68.24
7018;BME280;3549;42.162;24.726;2023-04-02T02:25:27;47705.53;;;-141.97;67.87
7018;BME280;3549;42.162;24.726;2023-04-02T02:28:17;47672.84;;;-141.97;67.67
7018;BME280;3549;42.162;24.726;2023-04-02T02:30:48;47505.63;;;-141.97;67.46
7018;BME280;3549;42.162;24.726;2023-04-02T02:35:54;47682.47;;;-141.97;67.21
7018;BME280;3549;42.162;24.726;2023-04-02T02:43:43;47607.50;;;-141.97;66.06
7018;BME280;3549;42.162;24.726;2023-04-02T02:46:15;47561.38;;;-141.97;66.30
7018;BME280;3549;42.162;24.726;2023-04-02T02:48:43;47776.63;;;-141.97;66.33
7018;BME280;3549;42.162;24.726;2023-04-02T02:51:17;47588.28;;;-141.97;66.26
7018;BME280;3549;42.162;24.726;2023-04-02T02:53:49;47709.38;;;-141.97;66.49
7018;BME280;3549;42.162;24.726;2023-04-02T02:56:15;47642.09;;;-141.97;66.82
7018;BME280;3549;42.162;24.726;2023-04-02T02:58:41;47718.97;;;-141.97;66.54
7018;BME280;3549;42.162;24.726;2023-04-02T03:01:07;47651.69;;;-141.97;66.50
7018;BME280;3549;42.162;24.726;2023-04-02T03:03:33;47603.66;;;-141.97;68.28
7018;BME280;3549;42.162;24.726;2023-04-02T03:06:02;47603.66;;;-141.97;68.93
7018;BME280;3549;42.162;24.726;2023-04-02T03:08:39;47640.16;;;-141.97;69.23
7018;BME280;3549;42.162;24.726;2023-04-02T03:11:14;47742.03;;;-141.97;69.46
7018;BME280;3549;42.162;24.726;2023-04-02T03:13:45;47586.34;;;-141.97;69.49
7018;BME280;3549;42.162;24.726;2023-04-02T03:16:19;47534.44;;;-141.97;69.54
7018;BME280;3549;42.162;24.726;2023-04-02T03:19:08;47657.47;;;-141.97;69.82
7018;BME280;3549;42.162;24.726;2023-04-02T03:22:09;47667.06;;;-141.97;70.27
7018;BME280;3549;42.162;24.726;2023-04-02T03:27:05;47655.53;;;-141.97;71.11
7018;BME280;3549;42.162;24.726;2023-04-02T03:29:39;47667.06;;;-141.97;70.99
7018;BME280;3549;42.162;24.726;2023-04-02T03:32:27;47565.22;;;-141.97;71.29
7018;BME280;3549;42.162;24.726;2023-04-02T03:35:01;47672.84;;;-141.97;72.03
7018;BME280;3549;42.162;24.726;2023-04-02T03:37:41;47638.25;;;-141.97;72.81
7018;BME280;3549;42.162;24.726;2023-04-02T03:40:30;47565.22;;;-141.97;74.12
7018;BME280;3549;42.162;24.726;2023-04-02T03:43:14;47622.88;;;-141.97;75.00
7018;BME280;3549;42.162;24.726;2023-04-02T03:45:45;47722.81;;;-141.97;75.74
7018;BME280;3549;42.162;24.726;2023-04-02T03:50:55;47555.59;;;-141.97;76.77
7018;BME280;3549;42.162;24.726;2023-04-02T03:53:25;47557.53;;;-141.97;76.73
7018;BME280;3549;42.162;24.726;2023-04-02T03:55:52;47638.25;;;-141.97;76.38
7018;BME280;3549;42.162;24.726;2023-04-02T03:58:40;47644.00;;;-141.97;76.25
7018;BME280;3549;42.162;24.726;2023-04-02T04:01:17;47572.91;;;-141.97;76.13
7018;BME280;3549;42.162;24.726;2023-04-02T04:03:49;47490.25;;;-141.97;76.31
7018;BME280;3549;42.162;24.726;2023-04-02T04:06:31;47524.84;;;-141.97;75.67
7018;BME280;3549;42.162;24.726;2023-04-02T04:09:07;47757.41;;;-141.97;75.18
7018;BME280;3549;42.162;24.726;2023-04-02T04:11:36;47584.44;;;-141.97;76.11
7018;BME280;3549;42.162;24.726;2023-04-02T04:16:49;47640.16;;;-141.97;76.26
7018;BME280;3549;42.162;24.726;2023-04-02T04:19:32;47542.16;;;-141.97;76.01
7018;BME280;3549;42.162;24.726;2023-04-02T04:22:16;47582.50;;;-141.97;75.82
7018;BME280;3549;42.162;24.726;2023-04-02T04:24:44;47657.47;;;-141.97;76.05
7018;BME280;3549;42.162;24.726;2023-04-02T04:30:23;47745.88;;;-141.97;75.28
7018;BME280;3549;42.162;24.726;2023-04-02T04:32:55;47736.28;;;-141.97;75.18
7018;BME280;3549;42.162;24.726;2023-04-02T04:35:29;47692.06;;;-141.97;74.29
7018;BME280;3549;42.162;24.726;2023-04-02T04:38:00;47640.16;;;-141.97;74.08
7018;BME280;3549;42.162;24.726;2023-04-02T04:40:30;47694.00;;;-141.97;74.68
7018;BME280;3549;42.162;24.726;2023-04-02T04:43:05;47607.50;;;-141.97;74.84
7018;BME280;3549;42.162;24.726;2023-04-02T04:48:07;47563.28;;;-141.97;74.13
7018;BME280;3549;42.162;24.726;2023-04-02T04:50:40;47588.28;;;-141.97;73.91
7018;BME280;3549;42.162;24.726;2023-04-02T04:53:20;47597.88;;;-141.97;73.73
7018;BME280;3549;42.162;24.726;2023-04-02T04:55:49;47626.72;;;-141.97;72.75
7018;BME280;3549;42.162;24.726;2023-04-02T05:00:52;47690.16;;;-141.97;72.33
7018;BME280;3549;42.162;24.726;2023-04-02T05:03:49;47684.38;;;-141.97;71.86
7018;BME280;3549;42.162;24.726;2023-04-02T05:06:36;47680.53;;;-141.97;73.09
7018;BME280;3549;42.162;24.726;2023-04-02T05:09:13;47745.88;;;-141.97;73.25
7018;BME280;3549;42.162;24.726;2023-04-02T05:11:46;47684.38;;;-141.97;72.52
7018;BME280;3549;42.162;24.726;2023-04-02T05:14:21;47630.56;;;-141.97;72.07
7018;BME280;3549;42.162;24.726;2023-04-02T05:17:03;47580.59;;;-141.97;71.94
7018;BME280;3549;42.162;24.726;2023-04-02T05:19:44;47651.69;;;-141.97;72.06
7018;BME280;3549;42.162;24.726;2023-04-02T05:22:44;47672.84;;;-141.97;71.73
7018;BME280;3549;42.162;24.726;2023-04-02T05:25:21;47647.84;;;-141.97;71.05
7018;BME280;3549;42.162;24.726;2023-04-02T05:33:00;47603.66;;;-141.97;70.15
7018;BME280;3549;42.162;24.726;2023-04-02T05:35:32;47653.63;;;-141.97;70.11
7018;BME280;3549;42.162;24.726;2023-04-02T05:37:59;47678.63;;;-141.97;71.01
7018;BME280;3549;42.162;24.726;2023-04-02T05:40:39;47682.47;;;-141.97;70.61
7018;BME280;3549;42.162;24.726;2023-04-02T05:43:09;47663.22;;;-141.97;69.75
7018;BME280;3549;42.162;24.726;2023-04-02T05:45:40;47757.41;;;-141.97;69.30
7018;BME280;3549;42.162;24.726;2023-04-02T05:48:19;47619.03;;;-141.97;69.00
7018;BME280;3549;42.162;24.726;2023-04-02T05:50:51;47603.66;;;-141.97;68.22
7018;BME280;3549;42.162;24.726;2023-04-02T05:53:29;47680.53;;;-141.97;67.70
7018;BME280;3549;42.162;24.726;2023-04-02T05:56:02;47663.22;;;-141.97;66.71
7018;BME280;3549;42.162;24.726;2023-04-02T05:58:39;47768.94;;;-141.97;65.89
7018;BME280;3549;42.162;24.726;2023-04-02T06:01:29;47644.00;;;-141.97;64.57
7018;BME280;3549;42.162;24.726;2023-04-02T06:07:00;47709.38;;;-141.97;63.13
7018;BME280;3549;42.162;24.726;2023-04-02T06:09:36;47772.78;;;-141.97;62.49
7018;BME280;3549;42.162;24.726;2023-04-02T06:12:27;47678.63;;;-141.97;63.01
7018;BME280;3549;42.162;24.726;2023-04-02T06:14:55;47655.53;;;-141.97;62.23
7018;BME280;3549;42.162;24.726;2023-04-02T06:17:21;47588.28;;;-141.97;62.46
7018;BME280;3549;42.162;24.726;2023-04-02T06:19:47;47569.06;;;-141.97;61.63
7018;BME280;3549;42.162;24.726;2023-04-02T06:22:19;47674.78;;;-141.97;61.74
7018;BME280;3549;42.162;24.726;2023-04-02T06:24:51;47626.72;;;-141.97;61.55
7018;BME280;3549;42.162;24.726;2023-04-02T06:27:19;47521.00;;;-141.97;61.73
7018;BME280;3549;42.162;24.726;2023-04-02T06:29:49;47728.59;;;-141.97;60.64
7018;BME280;3549;42.162;24.726;2023-04-02T06:32:19;47626.72;;;-141.97;60.66
7018;BME280;3549;42.162;24.726;2023-04-02T06:34:47;47632.47;;;-141.97;60.57
7018;BME280;3549;42.162;24.726;2023-04-02T06:39:50;47695.91;;;-141.97;58.60
7018;BME280;3549;42.162;24.726;2023-04-02T06:42:22;47592.13;;;-141.97;58.85
7018;BME280;3549;42.162;24.726;2023-04-02T06:44:49;47534.44;;;-141.97;57.38
7018;BME280;3549;42.162;24.726;2023-04-02T06:47:28;47667.06;;;-141.97;55.96
7018;BME280;3549;42.162;24.726;2023-04-02T06:50:24;47661.31;;;-141.97;55.40
7018;BME280;3549;42.162;24.726;2023-04-02T06:52:57;47742.03;;;-141.97;55.44
7018;BME280;3549;42.162;24.726;2023-04-02T06:57:49;47536.38;;;-141.97;55.63
7018;BME280;3549;42.162;24.726;2023-04-02T07:00:35;47695.91;;;-141.97;56.34
7018;BME280;3549;42.162;24.726;2023-04-02T07:03:07;47570.97;;;-141.97;56.14
7018;BME280;3549;42.162;24.726;2023-04-02T07:05:37;47740.13;;;-141.97;56.56
7018;BME280;3549;42.162;24.726;2023-04-02T07:08:03;47499.84;;;-141.97;56.33
7018;BME280;3549;42.162;24.726;2023-04-02T07:10:28;47647.84;;;-141.97;55.06
7018;BME280;3549;42.162;24.726;2023-04-02T07:12:54;47738.19;;;-141.97;55.28
7018;BME280;3549;42.162;24.726;2023-04-02T07:15:19;47745.88;;;-141.97;54.68
7018;BME280;3549;42.162;24.726;2023-04-02T07:17:47;47442.19;;;-141.97;54.45
7018;BME280;3549;42.162;24.726;2023-04-02T07:20:29;47630.56;;;-141.97;55.20
7018;BME280;3549;42.162;24.726;2023-04-02T07:22:55;47728.59;;;-141.97;55.44
7018;BME280;3549;42.162;24.726;2023-04-02T07:25:22;47680.53;;;-141.97;56.10
7018;BME280;3549;42.162;24.726;2023-04-02T07:27:55;47795.88;;;-141.97;56.28
7018;BME280;3549;42.162;24.726;2023-04-02T07:30:25;47669.00;;;-141.97;55.35
7018;BME280;3549;42.162;24.726;2023-04-02T07:32:51;47661.31;;;-141.97;55.36
7018;BME280;3549;42.162;24.726;2023-04-02T07:35:16;47594.03;;;-141.97;55.43
7018;BME280;3549;42.162;24.726;2023-04-02T07:37:41;47761.25;;;-141.97;55.02
7018;BME280;3549;42.162;24.726;2023-04-02T07:40:25;47622.88;;;-141.97;54.10
7018;BME280;3549;42.162;24.726;2023-04-02T07:42:50;47565.22;;;-141.97;52.94
7018;BME280;3549;42.162;24.726;2023-04-02T07:45:16;47615.19;;;-141.97;51.86
7018;BME280;3549;42.162;24.726;2023-04-02T07:47:42;47584.44;;;-141.97;53.18
7018;BME280;3549;42.162;24.726;2023-04-02T07:50:08;47624.78;;;-141.97;52.43
7018;BME280;3549;42.162;24.726;2023-04-02T07:52:41;47722.81;;;-141.97;51.83
7018;BME280;3549;42.162;24.726;2023-04-02T07:55:11;47642.09;;;-141.97;50.27
7018;BME280;3549;42.162;24.726;2023-04-02T07:57:39;47592.13;;;-141.97;50.51
7018;BME280;3549;42.162;24.726;2023-04-02T08:00:08;47480.63;;;-141.97;50.47
7018;BME280;3549;42.162;24.726;2023-04-02T08:02:34;47519.06;;;-141.97;50.59
7018;BME280;3549;42.162;24.726;2023-04-02T08:04:59;47738.19;;;-141.97;51.22
7018;BME280;3549;42.162;24.726;2023-04-02T08:07:26;47590.19;;;-141.97;51.41
7018;BME280;3549;42.162;24.726;2023-04-02T08:09:52;47761.25;;;-141.97;50.78
7018;BME280;3549;42.162;24.726;2023-04-02T08:12:17;47653.63;;;-141.97;49.78
7018;BME280;3549;42.162;24.726;2023-04-02T08:14:42;47730.50;;;-141.97;49.24
7018;BME280;3549;42.162;24.726;2023-04-02T08:17:08;47718.97;;;-141.97;49.33
7018;BME280;3549;42.162;24.726;2023-04-02T08:19:33;47432.59;;;-141.97;48.16
7018;BME280;3549;42.162;24.726;2023-04-02T08:21:59;47565.22;;;-141.97;48.19
7018;BME280;3549;42.162;24.726;2023-04-02T08:24:24;47745.88;;;-141.97;47.87
7018;BME280;3549;42.162;24.726;2023-04-02T08:26:50;47644.00;;;-141.97;47.08
7018;BME280;3549;42.162;24.726;2023-04-02T08:29:17;47724.75;;;-141.97;45.29
7018;BME280;3549;42.162;24.726;2023-04-02T08:31:43;47653.63;;;-141.97;45.02
7018;BME280;3549;42.162;24.726;2023-04-02T08:34:08;47594.03;;;-141.97;44.14
7018;BME280;3549;42.162;24.726;2023-04-02T08:36:36;47484.47;;;-141.97;42.70
7018;BME280;3549;42.162;24.726;2023-04-02T08:39:03;47659.38;;;-141.97;43.46
7018;BME280;3549;42.162;24.726;2023-04-02T08:41:36;47640.16;;;-141.97;42.44
7018;BME280;3549;42.162;24.726;2023-04-02T08:44:23;47653.63;;;-141.97;42.69
7018;BME280;3549;42.162;24.726;2023-04-02T08:46:59;47684.38;;;-141.97;40.89
7018;BME280;3549;42.162;24.726;2023-04-02T08:49:41;47580.59;;;-141.97;41.22
7018;BME280;3549;42.162;24.726;2023-04-02T08:52:21;47661.31;;;-141.97;40.49
7018;BME280;3549;42.162;24.726;2023-04-02T08:54:47;47563.28;;;-141.97;39.51
7018;BME280;3549;42.162;24.726;2023-04-02T09:02:53;47594.03;;;-141.97;40.19
7018;BME280;3549;42.162;24.726;2023-04-02T09:05:32;47611.34;;;-141.97;39.85
7018;BME280;3549;42.162;24.726;2023-04-02T09:08:01;47580.59;;;-141.97;40.05
7018;BME280;3549;42.162;24.726;2023-04-02T09:13:27;47720.91;;;-141.97;39.66
7018;BME280;3549;42.162;24.726;2023-04-02T09:16:08;47586.34;;;-141.97;40.18
7018;BME280;3549;42.162;24.726;2023-04-02T09:18:35;47599.81;;;-141.97;39.46
7018;BME280;3549;42.162;24.726;2023-04-02T09:23:37;47630.56;;;-141.97;40.22
7018;BME280;3549;42.162;24.726;2023-04-02T09:26:22;47742.03;;;-141.97;39.65
7018;BME280;3549;42.162;24.726;2023-04-02T09:28:53;47645.94;;;-141.97;39.51
7018;BME280;3549;42.162;24.726;2023-04-02T09:31:39;47569.06;;;-141.97;38.27
7018;BME280;3549;42.162;24.726;2023-04-02T09:36:54;47597.88;;;-141.97;37.89
7018;BME280;3549;42.162;24.726;2023-04-02T09:39:23;47603.66;;;-141.97;36.85
7018;BME280;3549;42.162;24.726;2023-04-02T09:41:50;47576.75;;;-141.97;36.35
7018;BME280;3549;42.162;24.726;2023-04-02T09:44:23;47586.34;;;-141.97;36.98
7018;BME280;3549;42.162;24.726;2023-04-02T09:49:37;47611.34;;;-141.97;34.43
7018;BME280;3549;42.162;24.726;2023-04-02T09:52:26;47570.97;;;-141.97;33.61
7018;BME280;3549;42.162;24.726;2023-04-02T09:58:09;47599.81;;;-141.97;32.79
7018;BME280;3549;42.162;24.726;2023-04-02T10:00:36;47457.56;;;-141.97;32.85
7018;BME280;3549;42.162;24.726;2023-04-02T10:03:05;47728.59;;;-141.97;33.39
7018;BME280;3549;42.162;24.726;2023-04-02T10:05:32;47599.81;;;-141.97;33.12
7018;BME280;3549;42.162;24.726;2023-04-02T10:08:17;47786.25;;;-141.97;32.73
7018;BME280;3549;42.162;24.726;2023-04-02T10:10:47;47434.50;;;-141.97;31.53
7018;BME280;3549;42.162;24.726;2023-04-02T10:13:37;47388.38;;;-141.97;30.99
7018;BME280;3549;42.162;24.726;2023-04-02T10:16:19;47638.25;;;-141.97;30.83
7018;BME280;3549;42.162;24.726;2023-04-02T10:18:53;47595.97;;;-141.97;30.93
7018;BME280;3549;42.162;24.726;2023-04-02T10:21:35;47576.75;;;-141.97;30.78
7018;BME280;3549;42.162;24.726;2023-04-02T10:24:12;47728.59;;;-141.97;30.93
7018;BME280;3549;42.162;24.726;2023-04-02T10:43:02;47770.88;;;-141.97;30.92
7018;BME280;3549;42.162;24.726;2023-04-02T10:45:45;47592.13;;;-141.97;30.68
7018;BME280;3549;42.162;24.726;2023-04-02T10:48:40;47634.41;;;-141.97;30.51
7018;BME280;3549;42.162;24.726;2023-04-02T10:54:29;47569.06;;;-141.97;28.05
7018;BME280;3549;42.162;24.726;2023-04-02T10:57:06;47694.00;;;-141.97;28.64
7018;BME280;3549;42.162;24.726;2023-04-02T10:59:34;47323.03;;;-141.97;29.52
7018;BME280;3549;42.162;24.726;2023-04-02T11:02:24;47670.91;;;-141.97;29.72
7018;BME280;3549;42.162;24.726;2023-04-02T11:05:15;47588.28;;;-141.97;29.74
7018;BME280;3549;42.162;24.726;2023-04-02T11:08:28;47569.06;;;-141.97;29.17
7018;BME280;3549;42.162;24.726;2023-04-02T11:11:13;47346.09;;;-141.97;30.14
7018;BME280;3549;42.162;24.726;2023-04-02T11:16:14;47730.50;;;-141.97;29.18
7018;BME280;3549;42.162;24.726;2023-04-02T11:18:40;47411.44;;;-141.97;29.53
7018;BME280;3549;42.162;24.726;2023-04-02T11:23:57;47709.38;;;-141.97;29.29
7018;BME280;3549;42.162;24.726;2023-04-02T11:26:40;47584.44;;;-141.97;29.22
7018;BME280;3549;42.162;24.726;2023-04-02T11:29:13;47482.56;;;-141.97;28.79
7018;BME280;3549;42.162;24.726;2023-04-02T11:31:41;47559.44;;;-141.97;29.55
7018;BME280;3549;42.162;24.726;2023-04-02T11:34:12;47567.13;;;-141.97;29.29
7018;BME280;3549;42.162;24.726;2023-04-02T11:44:43;47528.69;;;-141.97;28.84
7018;BME280;3549;42.162;24.726;2023-04-02T11:47:28;47678.63;;;-141.97;28.37
7018;BME280;3549;42.162;24.726;2023-04-02T11:52:35;47536.38;;;-141.97;28.25
7018;BME280;3549;42.162;24.726;2023-04-02T11:55:20;47551.75;;;-141.97;28.25
7018;BME280;3549;42.162;24.726;2023-04-02T12:06:43;47544.06;;;-141.97;27.33
7018;BME280;3549;42.162;24.726;2023-04-02T12:09:18;47544.06;;;-141.97;26.71
7018;BME280;3549;42.162;24.726;2023-04-02T12:11:45;47515.22;;;-141.97;26.56
7018;BME280;3549;42.162;24.726;2023-04-02T12:14:36;47484.47;;;-141.97;25.67
7018;BME280;3549;42.162;24.726;2023-04-02T12:19:47;47507.53;;;-141.97;26.61
7018;BME280;3549;42.162;24.726;2023-04-02T12:22:33;47513.31;;;-141.97;26.41
7018;BME280;3549;42.162;24.726;2023-04-02T12:27:46;47430.66;;;-141.97;25.67
7018;BME280;3549;42.162;24.726;2023-04-02T12:30:15;47524.84;;;-141.97;25.69
7018;BME280;3549;42.162;24.726;2023-04-02T12:32:41;47471.03;;;-141.97;26.57
7018;BME280;3549;42.162;24.726;2023-04-02T12:35:26;47459.50;;;-141.97;25.83
7018;BME280;3549;42.162;24.726;2023-04-02T12:37:52;47515.22;;;-141.97;26.21
7018;BME280;3549;42.162;24.726;2023-04-02T12:40:18;47530.59;;;-141.97;26.35
7018;BME280;3549;42.162;24.726;2023-04-02T12:42:43;47505.63;;;-141.97;26.25
7018;BME280;3549;42.162;24.726;2023-04-02T12:45:21;47513.31;;;-141.97;26.36
7018;BME280;3549;42.162;24.726;2023-04-02T12:47:49;47501.78;;;-141.97;25.82
7018;BME280;3549;42.162;24.726;2023-04-02T12:50:20;47271.16;;;-141.97;25.97
7018;BME280;3549;42.162;24.726;2023-04-02T12:52:51;47507.53;;;-141.97;26.00
7018;BME280;3549;42.162;24.726;2023-04-02T12:55:23;47522.91;;;-141.97;25.99
7018;BME280;3549;42.162;24.726;2023-04-02T12:57:57;47446.03;;;-141.97;25.99
7018;BME280;3549;42.162;24.726;2023-04-02T13:03:21;47507.53;;;-141.97;25.60
7018;BME280;3549;42.162;24.726;2023-04-02T13:05:50;47469.09;;;-141.97;25.92
7018;BME280;3549;42.162;24.726;2023-04-02T13:08:22;47513.31;;;-141.97;25.40
7018;BME280;3549;42.162;24.726;2023-04-02T13:10:54;47511.38;;;-141.97;25.01
7018;BME280;3549;42.162;24.726;2023-04-02T13:13:28;47451.81;;;-141.97;24.49
7018;BME280;3549;42.162;24.726;2023-04-02T13:18:38;47499.84;;;-141.97;25.09
7018;BME280;3549;42.162;24.726;2023-04-02T13:21:25;47426.81;;;-141.97;25.34
7018;BME280;3549;42.162;24.726;2023-04-02T13:23:54;47494.09;;;-141.97;25.21
7018;BME280;3549;42.162;24.726;2023-04-02T13:26:21;47474.88;;;-141.97;25.13
7018;BME280;3549;42.162;24.726;2023-04-02T13:31:28;47513.31;;;-141.97;25.07
7018;BME280;3549;42.162;24.726;2023-04-02T13:33:54;47480.63;;;-141.97;25.20
7018;BME280;3549;42.162;24.726;2023-04-02T13:36:20;47657.47;;;-141.97;24.70
7018;BME280;3549;42.162;24.726;2023-04-02T13:38:45;47474.88;;;-141.97;25.20
7018;BME280;3549;42.162;24.726;2023-04-02T13:41:23;47474.88;;;-141.97;25.37
7018;BME280;3549;42.162;24.726;2023-04-02T13:43:53;47670.91;;;-141.97;25.18
7018;BME280;3549;42.162;24.726;2023-04-02T13:46:21;47715.13;;;-141.97;25.62
7018;BME280;3549;42.162;24.726;2023-04-02T13:48:48;47234.63;;;-141.97;25.56
7018;BME280;3549;42.162;24.726;2023-04-02T13:51:16;47476.78;;;-141.97;25.19
7018;BME280;3549;42.162;24.726;2023-04-02T13:53:43;47492.16;;;-141.97;25.21
7018;BME280;3549;42.162;24.726;2023-04-02T13:56:09;47465.25;;;-141.97;24.91
7018;BME280;3549;42.162;24.726;2023-04-02T13:58:35;47323.03;;;-141.97;24.94
7018;BME280;3549;42.162;24.726;2023-04-02T14:01:00;47630.56;;;-141.97;24.58
7018;BME280;3549;42.162;24.726;2023-04-02T14:03:26;47507.53;;;-141.97;24.85
7018;BME280;3549;42.162;24.726;2023-04-02T14:06:09;47447.97;;;-141.97;24.44
7018;BME280;3549;42.162;24.726;2023-04-02T14:11:54;47501.78;;;-141.97;26.60
7018;BME280;3549;42.162;24.726;2023-04-02T14:14:35;47515.22;;;-141.97;26.73
7018;BME280;3549;42.162;24.726;2023-04-02T14:17:22;47549.84;;;-141.97;26.50
7018;BME280;3549;42.162;24.726;2023-04-02T14:20:22;47530.59;;;-141.97;27.09
7018;BME280;3549;42.162;24.726;2023-04-02T14:25:39;47446.03;;;-141.97;24.26
7018;BME280;3549;42.162;24.726;2023-04-02T14:31:09;47440.28;;;-141.97;23.60
7018;BME280;3549;42.162;24.726;2023-04-02T14:33:57;47453.72;;;-141.97;24.63
7018;BME280;3549;42.162;24.726;2023-04-02T14:39:33;47411.44;;;-141.97;23.57
7018;BME280;3549;42.162;24.726;2023-04-02T14:42:12;47369.16;;;-141.97;23.12
7018;BME280;3549;42.162;24.726;2023-04-02T14:44:51;47351.88;;;-141.97;22.56
7018;BME280;3549;42.162;24.726;2023-04-02T14:47:34;47328.81;;;-141.97;22.22
7018;BME280;3549;42.162;24.726;2023-04-02T14:50:25;47374.94;;;-141.97;22.79
7018;BME280;3549;42.162;24.726;2023-04-02T14:52:57;47446.03;;;-141.97;22.98
7018;BME280;3549;42.162;24.726;2023-04-02T14:55:51;47430.66;;;-141.97;23.02
7018;BME280;3549;42.162;24.726;2023-04-02T14:58:32;47438.34;;;-141.97;23.67
7018;BME280;3549;42.162;24.726;2023-04-02T15:01:16;47390.31;;;-141.97;23.75
7018;BME280;3549;42.162;24.726;2023-04-02T15:03:52;47328.81;;;-141.97;23.25
7018;BME280;3549;42.162;24.726;2023-04-02T15:06:22;47407.59;;;-141.97;23.17
7018;BME280;3549;42.162;24.726;2023-04-02T15:08:53;47376.84;;;-141.97;22.62
7018;BME280;3549;42.162;24.726;2023-04-02T15:11:26;47415.28;;;-141.97;22.71
7018;BME280;3549;42.162;24.726;2023-04-02T15:13:56;47457.56;;;-141.97;24.40
7018;BME280;3549;42.162;24.726;2023-04-02T15:16:24;47503.69;;;-141.97;25.88
7018;BME280;3549;42.162;24.726;2023-04-02T15:18:58;47532.53;;;-141.97;26.70
7018;BME280;3549;42.162;24.726;2023-04-02T15:24:16;47538.28;;;-141.97;27.10
7018;BME280;3549;42.162;24.726;2023-04-02T15:26:57;47517.16;;;-141.97;25.86
7018;BME280;3549;42.162;24.726;2023-04-02T15:29:36;47442.19;;;-141.97;23.97
7018;BME280;3549;42.162;24.726;2023-04-02T15:38:14;47301.91;;;-141.97;21.75
7018;BME280;3549;42.162;24.726;2023-04-02T15:41:13;47365.31;;;-141.97;21.81
7018;BME280;3549;42.162;24.726;2023-04-02T15:43:47;47419.13;;;-141.97;22.28
7018;BME280;3549;42.162;24.726;2023-04-02T16:00:10;47440.28;;;-141.97;23.94
7018;BME280;3549;42.162;24.726;2023-04-02T16:02:55;47515.22;;;-141.97;25.27
7018;BME280;3549;42.162;24.726;2023-04-02T16:08:00;47534.44;;;-141.97;26.93
7018;BME280;3549;42.162;24.726;2023-04-02T16:10:35;47519.06;;;-141.97;27.21
7018;BME280;3549;42.162;24.726;2023-04-02T16:15:54;47542.16;;;-141.97;27.78
7018;BME280;3549;42.162;24.726;2023-04-02T16:20:54;47576.75;;;-141.97;28.08
7018;BME280;3549;42.162;24.726;2023-04-02T16:23:28;47557.53;;;-141.97;27.96
7018;BME280;3549;42.162;24.726;2023-04-02T16:40:09;47534.44;;;-141.97;28.70
7018;BME280;3549;42.162;24.726;2023-04-02T16:42:53;47553.69;;;-141.97;28.78